createdAt,value
2023-03-12T00:01:51.108Z,98858.75
2023-03-12T00:04:23.891Z,98852.50
2023-03-12T00:06:58.114Z,98859.22
2023-03-12T00:09:30.887Z,98852.81
2023-03-12T00:12:04.112Z,98863.00
2023-03-12T00:14:37.622Z,98859.84
2023-03-12T00:17:10.488Z,98862.81
2023-03-12T00:19:43.287Z,98859.13
2023-03-12T00:22:17.979Z,98854.03
2023-03-12T00:24:52.190Z,98853.06
2023-03-12T00:27:25.589Z,98852.50
2023-03-12T00:29:58.531Z,98854.09
2023-03-12T00:32:33.840Z,98851.44
2023-03-12T00:35:07.917Z,98847.59
2023-03-12T00:37:42.301Z,98851.13
2023-03-12T00:40:15.461Z,98848.91
2023-03-12T00:42:48.305Z,98851.31
2023-03-12T00:45:21.156Z,98851.09
2023-03-12T00:47:54.223Z,98860.81
2023-03-12T00:50:27.145Z,98859.03
2023-03-12T00:53:01.762Z,98854.38
2023-03-12T00:55:35.183Z,98855.38
2023-03-12T00:58:08.230Z,98865.47
2023-03-12T01:00:41.512Z,98854.28
2023-03-12T01:03:14.670Z,98850.81
2023-03-12T01:05:53.991Z,98844.81
2023-03-12T01:08:28.535Z,98842.03
2023-03-12T01:11:01.631Z,98839.28
2023-03-12T01:13:34.732Z,98843.06
2023-03-12T01:16:08.472Z,98850.72
2023-03-12T01:18:41.593Z,98846.81
2023-03-12T01:21:14.471Z,98843.88
2023-03-12T01:23:48.633Z,98838.69
2023-03-12T01:26:21.789Z,98845.09
2023-03-12T01:28:54.628Z,98844.56
2023-03-12T01:31:27.748Z,98842.72
2023-03-12T01:34:00.546Z,98832.66
2023-03-12T01:36:33.411Z,98841.53
2023-03-12T01:39:07.886Z,98834.53
2023-03-12T01:41:41.342Z,98835.69
2023-03-12T01:44:15.538Z,98831.91
2023-03-12T01:46:48.757Z,98836.63
2023-03-12T01:49:28.243Z,98827.00
2023-03-12T01:52:05.904Z,98836.19
2023-03-12T01:54:51.146Z,98837.31
2023-03-12T01:57:28.064Z,98836.00
2023-03-12T02:00:05.674Z,98842.91
2023-03-12T02:02:48.090Z,98838.22
2023-03-12T02:05:29.939Z,98836.81
2023-03-12T02:08:03.720Z,98838.69
2023-03-12T02:10:38.034Z,98842.75
2023-03-12T02:13:11.815Z,98840.19
2023-03-12T02:15:49.884Z,98845.94
2023-03-12T02:18:24.957Z,98837.44
2023-03-12T02:21:10.350Z,98846.19
2023-03-12T02:23:48.997Z,98841.88
2023-03-12T02:26:24.716Z,98846.78
2023-03-12T02:29:00.362Z,98845.31
2023-03-12T02:31:40.009Z,98843.47
2023-03-12T02:34:13.210Z,98840.94
2023-03-12T02:36:46.067Z,98836.88
2023-03-12T02:39:19.619Z,98844.38
2023-03-12T02:41:57.677Z,98841.41
2023-03-12T02:44:33.587Z,98839.69
2023-03-12T02:47:07.503Z,98828.28
2023-03-12T02:49:40.348Z,98836.84
2023-03-12T02:52:13.396Z,98833.50
2023-03-12T02:54:46.508Z,98838.44
2023-03-12T02:57:20.910Z,98844.19
2023-03-12T02:59:54.781Z,98840.47
2023-03-12T03:02:28.035Z,98846.88
2023-03-12T03:05:01.247Z,98838.06
2023-03-12T03:07:34.354Z,98844.56
2023-03-12T03:10:08.303Z,98836.19
2023-03-12T03:12:42.708Z,98840.50
2023-03-12T03:15:15.913Z,98841.56
2023-03-12T03:17:48.904Z,98833.25
2023-03-12T03:20:22.737Z,98827.22
2023-03-12T03:22:55.780Z,98832.31
2023-03-12T03:25:28.789Z,98832.91
2023-03-12T03:28:02.892Z,98834.78
2023-03-12T03:30:35.816Z,98837.78
2023-03-12T03:33:11.077Z,98833.41
2023-03-12T03:35:44.102Z,98831.84
2023-03-12T03:38:17.530Z,98829.97
2023-03-12T03:40:50.351Z,98825.50
2023-03-12T03:43:25.859Z,98835.75
2023-03-12T03:45:59.369Z,98833.41
2023-03-12T03:48:33.022Z,98836.72
2023-03-12T03:51:08.740Z,98831.47
2023-03-12T03:53:43.713Z,98835.53
2023-03-12T03:56:17.662Z,98839.72
2023-03-12T03:58:55.357Z,98840.25
2023-03-12T04:01:29.418Z,98845.19
2023-03-12T04:04:03.040Z,98838.59
2023-03-12T04:06:38.000Z,98843.63
2023-03-12T04:09:11.065Z,98831.06
2023-03-12T04:11:45.711Z,98828.50
2023-03-12T04:14:21.239Z,98838.75
2023-03-12T04:16:54.645Z,98831.19
2023-03-12T04:19:27.696Z,98823.13
2023-03-12T04:22:00.769Z,98823.34
2023-03-12T04:24:34.301Z,98823.94
2023-03-12T04:27:07.493Z,98818.78
2023-03-12T04:29:42.756Z,98811.59
2023-03-12T04:32:16.221Z,98813.63
2023-03-12T04:34:49.689Z,98814.97
2023-03-12T04:37:23.758Z,98805.38
2023-03-12T04:39:56.990Z,98809.72
2023-03-12T04:42:30.053Z,98807.31
2023-03-12T04:45:06.465Z,98799.59
2023-03-12T04:47:41.763Z,98798.84
2023-03-12T04:50:16.394Z,98800.84
2023-03-12T04:52:49.427Z,98797.69
2023-03-12T04:55:22.595Z,98801.22
2023-03-12T04:57:55.788Z,98804.47
2023-03-12T05:00:32.262Z,98804.94
2023-03-12T05:03:05.409Z,98806.97
2023-03-12T05:05:38.354Z,98809.16
2023-03-12T05:08:11.806Z,98807.19
2023-03-12T05:10:45.916Z,98808.41
2023-03-12T05:13:23.646Z,98807.06
2023-03-12T05:16:02.400Z,98804.97
2023-03-12T05:18:37.566Z,98800.25
2023-03-12T05:21:14.852Z,98796.31
2023-03-12T05:23:48.804Z,98799.25
2023-03-12T05:26:25.115Z,98794.44
2023-03-12T05:29:03.784Z,98790.91
2023-03-12T05:31:39.128Z,98780.06
2023-03-12T05:34:14.881Z,98790.78
2023-03-12T05:36:50.060Z,98790.81
2023-03-12T05:39:28.299Z,98795.94
2023-03-12T05:42:05.144Z,98806.53
2023-03-12T05:44:40.902Z,98810.00
2023-03-12T05:47:17.094Z,98805.28
2023-03-12T05:49:50.381Z,98804.47
2023-03-12T05:52:24.085Z,98802.31
2023-03-12T05:54:57.401Z,98814.50
2023-03-12T05:57:31.100Z,98811.44
2023-03-12T06:00:07.886Z,98807.13
2023-03-12T06:02:47.452Z,98805.38
2023-03-12T06:05:20.838Z,98805.47
2023-03-12T06:07:54.171Z,98814.53
2023-03-12T06:10:27.208Z,98808.28
2023-03-12T06:13:00.228Z,98811.31
2023-03-12T06:15:33.305Z,98814.00
2023-03-12T06:18:08.715Z,98810.09
2023-03-12T06:20:41.937Z,98814.34
2023-03-12T06:23:14.926Z,98820.53
2023-03-12T06:25:48.571Z,98814.50
2023-03-12T06:28:21.445Z,98809.84
2023-03-12T06:30:54.699Z,98805.41
2023-03-12T06:33:29.632Z,98813.28
2023-03-12T06:36:05.286Z,98808.56
2023-03-12T06:38:38.883Z,98801.22
2023-03-12T06:41:13.586Z,98798.66
2023-03-12T06:43:50.330Z,98800.47
2023-03-12T06:46:25.493Z,98795.91
2023-03-12T06:49:00.030Z,98792.28
2023-03-12T06:51:33.805Z,98789.72
2023-03-12T06:54:06.950Z,98787.78
2023-03-12T06:56:39.979Z,98781.97
2023-03-12T06:59:13.064Z,98775.13
2023-03-12T07:01:46.009Z,98783.72
2023-03-12T07:04:20.418Z,98780.78
2023-03-12T07:06:53.348Z,98785.66
2023-03-12T07:09:26.250Z,98776.53
2023-03-12T07:11:59.434Z,98780.00
2023-03-12T07:14:32.605Z,98774.81
2023-03-12T07:17:06.191Z,98779.63
2023-03-12T07:19:40.820Z,98785.22
2023-03-12T07:22:13.908Z,98788.69
2023-03-12T07:24:46.905Z,98787.22
2023-03-12T07:27:19.810Z,98788.28
2023-03-12T07:29:52.876Z,98787.38
2023-03-12T07:32:25.946Z,98791.19
2023-03-12T07:35:00.178Z,98784.53
2023-03-12T07:37:33.386Z,98781.00
2023-03-12T07:40:07.466Z,98786.69
2023-03-12T07:42:40.423Z,98782.84
2023-03-12T07:45:13.353Z,98785.38
2023-03-12T07:47:47.293Z,98774.19
2023-03-12T07:50:21.956Z,98775.09
2023-03-12T07:52:54.803Z,98774.59
2023-03-12T07:55:27.710Z,98775.38
2023-03-12T07:58:00.790Z,98777.88
2023-03-12T08:00:33.675Z,98783.41
2023-03-12T08:03:06.783Z,98784.97
2023-03-12T08:05:41.148Z,98790.06
2023-03-12T08:08:14.667Z,98787.50
2023-03-12T08:10:48.102Z,98785.91
2023-03-12T08:13:23.074Z,98793.56
2023-03-12T08:15:56.452Z,98789.88
2023-03-12T08:18:29.578Z,98785.91
2023-03-12T08:21:03.866Z,98790.88
2023-03-12T08:23:36.866Z,98797.66
2023-03-12T08:26:09.894Z,98785.88
2023-03-12T08:28:43.123Z,98783.13
2023-03-12T08:31:16.067Z,98787.44
2023-03-12T08:33:48.961Z,98785.47
2023-03-12T08:36:23.239Z,98774.81
2023-03-12T08:38:56.364Z,98780.78
2023-03-12T08:41:30.155Z,98765.91
2023-03-12T08:44:03.681Z,98753.03
2023-03-12T08:46:36.523Z,98758.25
2023-03-12T08:49:09.406Z,98763.81
2023-03-12T08:51:43.761Z,98771.66
2023-03-12T08:54:16.594Z,98769.75
2023-03-12T08:56:51.974Z,98768.94
2023-03-12T08:59:25.074Z,98777.19
2023-03-12T09:01:57.949Z,98773.66
2023-03-12T09:04:31.016Z,98770.13
2023-03-12T09:07:05.648Z,98766.19
2023-03-12T09:09:38.647Z,98770.56
2023-03-12T09:12:11.771Z,98772.09
2023-03-12T09:15:03.528Z,98780.38
2023-03-12T09:17:37.112Z,98784.31
2023-03-12T09:20:14.101Z,98779.56
2023-03-12T09:22:49.103Z,98776.06
2023-03-12T09:25:23.414Z,98776.06
2023-03-12T09:27:56.526Z,98765.38
2023-03-12T09:30:30.270Z,98768.53
2023-03-12T09:33:03.557Z,98772.06
2023-03-12T09:35:36.657Z,98766.94
2023-03-12T09:38:14.843Z,98758.22
2023-03-12T09:40:48.746Z,98752.34
2023-03-12T09:43:27.816Z,98753.53
2023-03-12T09:46:01.706Z,98743.22
2023-03-12T09:48:36.741Z,98739.94
2023-03-12T09:51:18.090Z,98749.16
2023-03-12T09:53:55.356Z,98743.53
2023-03-12T09:56:28.988Z,98740.78
2023-03-12T09:59:02.483Z,98740.09
2023-03-12T10:01:40.048Z,98741.66
2023-03-12T10:04:48.891Z,98749.91
2023-03-12T10:07:33.231Z,98745.25
2023-03-12T10:10:24.992Z,98751.09
2023-03-12T10:13:12.138Z,98740.78
2023-03-12T10:15:55.393Z,98735.28
2023-03-12T10:18:48.161Z,98740.03
2023-03-12T10:21:26.642Z,98739.19
2023-03-12T10:24:14.413Z,98734.84
2023-03-12T10:26:52.461Z,98742.81
2023-03-12T10:29:28.084Z,98733.28
2023-03-12T10:32:05.374Z,98738.41
2023-03-12T10:34:41.524Z,98735.69
2023-03-12T10:37:19.723Z,98732.09
2023-03-12T10:39:54.065Z,98732.56
2023-03-12T10:42:30.454Z,98727.34
2023-03-12T10:45:20.818Z,98738.72
2023-03-12T10:47:57.400Z,98740.22
2023-03-12T10:50:32.925Z,98739.09
2023-03-12T10:53:22.831Z,98741.44
2023-03-12T10:56:01.433Z,98749.25
2023-03-12T10:58:41.726Z,98751.25
2023-03-12T11:01:21.697Z,98751.66
2023-03-12T11:04:10.449Z,98751.56
2023-03-12T11:06:43.771Z,98744.53
2023-03-12T11:09:19.755Z,98761.91
2023-03-12T11:11:52.611Z,98754.34
2023-03-12T11:14:28.799Z,98759.88
2023-03-12T11:17:21.921Z,98758.66
2023-03-12T11:19:55.117Z,98761.75
2023-03-12T11:22:31.050Z,98761.47
2023-03-12T11:25:06.830Z,98759.47
2023-03-12T11:27:44.290Z,98765.31
2023-03-12T11:30:24.916Z,98759.34
2023-03-12T11:32:58.236Z,98756.91
2023-03-12T11:35:42.135Z,98754.72
2023-03-12T11:38:19.790Z,98750.66
2023-03-12T11:41:05.792Z,98748.94
2023-03-12T11:43:53.492Z,98750.59
2023-03-12T11:46:41.694Z,98741.69
2023-03-12T11:49:29.359Z,98736.94
2023-03-12T11:52:07.081Z,98743.19
2023-03-12T11:55:01.646Z,98744.81
2023-03-12T11:57:46.029Z,98725.03
2023-03-12T12:00:22.113Z,98728.47
2023-03-12T12:03:39.468Z,98717.44
2023-03-12T12:06:18.428Z,98718.88
2023-03-12T12:09:15.013Z,98701.16
2023-03-12T12:11:59.755Z,98698.38
2023-03-12T12:14:50.523Z,98698.47
2023-03-12T12:17:33.296Z,98706.38
2023-03-12T12:20:21.671Z,98712.50
2023-03-12T12:23:16.347Z,98706.00
2023-03-12T12:26:10.081Z,98705.53
2023-03-12T12:29:13.508Z,98703.94
2023-03-12T12:31:52.619Z,98696.50
2023-03-12T12:34:51.997Z,98684.78
2023-03-12T12:37:50.351Z,98665.72
2023-03-12T12:40:28.275Z,98666.94
2023-03-12T12:43:12.340Z,98659.41
2023-03-12T12:45:48.012Z,98662.28
2023-03-12T12:48:24.588Z,98662.53
2023-03-12T12:51:00.198Z,98654.00
2023-03-12T12:53:42.637Z,98669.16
2023-03-12T12:56:23.417Z,98648.88
2023-03-12T12:59:07.271Z,98644.03
2023-03-12T13:01:40.773Z,98650.88
2023-03-12T13:04:21.367Z,98648.38
2023-03-12T13:06:55.060Z,98649.63
2023-03-12T13:09:43.463Z,98648.13
2023-03-12T13:12:21.717Z,98654.63
2023-03-12T13:14:57.193Z,98656.28
2023-03-12T13:17:35.846Z,98652.97
2023-03-12T13:20:16.125Z,98659.31
2023-03-12T13:23:04.880Z,98652.97
2023-03-12T13:25:52.559Z,98656.97
2023-03-12T13:28:42.573Z,98661.81
2023-03-12T13:31:38.296Z,98654.50
2023-03-12T13:34:53.799Z,98658.84
2023-03-12T13:38:03.801Z,98644.03
2023-03-12T13:40:55.552Z,98654.00
2023-03-12T13:43:52.849Z,98649.13
2023-03-12T13:46:41.346Z,98652.16
2023-03-12T13:49:18.836Z,98665.06
2023-03-12T13:51:59.918Z,98657.63
2023-03-12T13:54:35.520Z,98655.28
2023-03-12T13:57:24.703Z,98652.75
2023-03-12T13:59:58.650Z,98656.25
2023-03-12T14:02:36.576Z,98657.66
2023-03-12T14:05:12.691Z,98658.44
2023-03-12T14:08:12.702Z,98653.41
2023-03-12T14:11:00.254Z,98656.13
2023-03-12T14:13:48.070Z,98666.09
2023-03-12T14:16:29.341Z,98654.94
2023-03-12T14:19:04.888Z,98662.66
2023-03-12T14:21:41.974Z,98668.88
2023-03-12T14:24:24.819Z,98675.59
2023-03-12T14:26:58.956Z,98672.44
2023-03-12T14:29:38.381Z,98679.19
2023-03-12T14:32:18.301Z,98674.50
2023-03-12T14:34:56.568Z,98676.31
2023-03-12T14:37:32.957Z,98686.44
2023-03-12T14:40:15.925Z,98696.50
2023-03-12T14:42:49.118Z,98679.09
2023-03-12T14:45:24.476Z,98683.28
2023-03-12T14:47:59.601Z,98684.34
2023-03-12T14:50:40.805Z,98672.28
2023-03-12T14:53:15.503Z,98669.94
2023-03-12T14:55:48.545Z,98675.44
2023-03-12T14:58:21.582Z,98658.84
2023-03-12T15:01:01.845Z,98665.13
2023-03-12T15:03:42.249Z,98676.41
2023-03-12T15:06:19.025Z,98668.53
2023-03-12T15:08:52.239Z,98658.34
2023-03-12T15:11:28.212Z,98655.38
2023-03-12T15:14:05.763Z,98647.72
2023-03-12T15:16:40.453Z,98638.31
2023-03-12T15:19:14.681Z,98633.22
2023-03-12T15:21:48.256Z,98621.19
2023-03-12T15:24:21.785Z,98624.41
2023-03-12T15:26:54.911Z,98620.50
2023-03-12T15:29:30.144Z,98611.78
2023-03-12T15:32:14.917Z,98617.69
2023-03-12T15:34:48.357Z,98618.66
2023-03-12T15:37:28.603Z,98616.72
2023-03-12T15:40:06.095Z,98618.66
2023-03-12T15:42:41.802Z,98624.03
2023-03-12T15:45:21.145Z,98639.75
2023-03-12T15:47:56.237Z,98636.50
2023-03-12T15:50:33.266Z,98638.63
2023-03-12T15:53:08.536Z,98645.16
2023-03-12T15:55:42.680Z,98642.13
2023-03-12T15:58:28.489Z,98643.50
2023-03-12T16:01:13.668Z,98642.72
2023-03-12T16:03:47.905Z,98643.31
2023-03-12T16:06:23.241Z,98647.34
2023-03-12T16:08:58.817Z,98647.84
2023-03-12T16:11:35.115Z,98653.28
2023-03-12T16:14:13.868Z,98641.06
2023-03-12T16:16:47.431Z,98647.44
2023-03-12T16:19:23.730Z,98632.84
2023-03-12T16:21:56.650Z,98634.34
2023-03-12T16:24:29.867Z,98636.19
2023-03-12T16:27:05.186Z,98635.56
2023-03-12T16:29:39.858Z,98632.34
2023-03-12T16:32:14.313Z,98626.25
2023-03-12T16:34:49.095Z,98619.69
2023-03-12T16:37:21.975Z,98626.41
2023-03-12T16:39:54.780Z,98630.00
2023-03-12T16:42:27.802Z,98637.31
2023-03-12T16:45:01.096Z,98641.31
2023-03-12T16:47:34.070Z,98644.91
2023-03-12T16:50:15.796Z,98646.72
2023-03-12T16:52:51.115Z,98645.69
2023-03-12T16:55:27.593Z,98639.78
2023-03-12T16:58:02.691Z,98628.59
2023-03-12T17:00:35.840Z,98624.59
2023-03-12T17:03:08.743Z,98626.25
2023-03-12T17:05:43.975Z,98637.66
2023-03-12T17:08:19.041Z,98637.56
2023-03-12T17:10:52.052Z,98636.28
2023-03-12T17:13:30.319Z,98635.31
2023-03-12T17:16:04.240Z,98641.25
2023-03-12T17:18:39.438Z,98640.88
2023-03-12T17:21:15.473Z,98655.00
2023-03-12T17:23:51.226Z,98654.50
2023-03-12T17:26:24.719Z,98649.59
2023-03-12T17:28:58.359Z,98649.84
2023-03-12T17:31:31.843Z,98651.53
2023-03-12T17:34:05.680Z,98654.31
2023-03-12T17:36:41.486Z,98647.34
2023-03-12T17:39:14.821Z,98651.59
2023-03-12T17:41:50.414Z,98656.50
2023-03-12T17:44:24.237Z,98659.63
2023-03-12T17:46:59.748Z,98658.81
2023-03-12T17:49:33.355Z,98659.00
2023-03-12T17:52:08.041Z,98656.75
2023-03-12T17:54:41.263Z,98656.75
2023-03-12T17:57:14.712Z,98655.09
2023-03-12T17:59:48.111Z,98654.75
2023-03-12T18:02:21.419Z,98669.72
2023-03-12T18:04:54.485Z,98667.09
2023-03-12T18:07:28.706Z,98669.91
2023-03-12T18:10:03.020Z,98679.03
2023-03-12T18:12:38.027Z,98679.91
2023-03-12T18:15:13.320Z,98675.81
2023-03-12T18:17:46.186Z,98690.63
2023-03-12T18:20:29.006Z,98686.28
2023-03-12T18:23:07.009Z,98696.56
2023-03-12T18:25:39.837Z,98684.09
2023-03-12T18:28:13.974Z,98689.75
2023-03-12T18:30:47.206Z,98687.94
2023-03-12T18:33:20.094Z,98690.63
2023-03-12T18:35:54.542Z,98687.84
2023-03-12T18:38:29.685Z,98699.69
2023-03-12T18:41:06.090Z,98707.19
2023-03-12T18:43:39.800Z,98706.56
2023-03-12T18:46:13.049Z,98698.72
2023-03-12T18:48:45.956Z,98714.69
2023-03-12T18:51:18.818Z,98711.81
2023-03-12T18:53:52.932Z,98700.13
2023-03-12T18:56:25.841Z,98709.13
2023-03-12T18:58:58.945Z,98707.28
2023-03-12T19:01:31.822Z,98709.72
2023-03-12T19:04:05.071Z,98700.59
2023-03-12T19:06:50.179Z,98700.22
2023-03-12T19:09:25.565Z,98702.03
2023-03-12T19:11:59.405Z,98712.66
2023-03-12T19:14:32.651Z,98705.81
2023-03-12T19:17:05.700Z,98699.38
2023-03-12T19:19:38.718Z,98691.50
2023-03-12T19:22:11.920Z,98701.47
2023-03-12T19:24:46.169Z,98696.81
2023-03-12T19:27:18.973Z,98691.50
2023-03-12T19:29:51.792Z,98687.50
2023-03-12T19:32:27.696Z,98692.75
2023-03-12T19:35:06.857Z,98696.56
2023-03-12T19:37:39.733Z,98705.09
2023-03-12T19:40:14.890Z,98692.72
2023-03-12T19:42:47.911Z,98704.56
2023-03-12T19:45:20.887Z,98699.97
2023-03-12T19:47:54.047Z,98704.22
2023-03-12T19:50:27.152Z,98703.44
2023-03-12T19:53:00.712Z,98700.41
2023-03-12T19:55:35.401Z,98706.31
2023-03-12T19:58:08.501Z,98700.75
2023-03-12T20:00:41.459Z,98703.31
2023-03-12T20:03:14.940Z,98705.94
2023-03-12T20:05:48.486Z,98710.03
2023-03-12T20:08:22.557Z,98712.25
2023-03-12T20:11:02.925Z,98720.56
2023-03-12T20:13:35.944Z,98716.91
2023-03-12T20:16:11.575Z,98718.75
2023-03-12T20:18:44.569Z,98720.78
2023-03-12T20:21:17.593Z,98725.72
2023-03-12T20:23:50.542Z,98725.13
2023-03-12T20:26:25.047Z,98728.25
2023-03-12T20:29:02.422Z,98722.53
2023-03-12T20:31:35.682Z,98726.69
2023-03-12T20:34:08.665Z,98729.66
2023-03-12T20:36:42.208Z,98728.97
2023-03-12T20:39:15.200Z,98722.19
2023-03-12T20:41:50.350Z,98723.44
2023-03-12T20:44:23.266Z,98720.72
2023-03-12T20:46:57.310Z,98724.81
2023-03-12T20:49:30.245Z,98720.88
2023-03-12T20:52:03.751Z,98714.53
2023-03-12T20:54:36.625Z,98722.16
2023-03-12T20:57:10.874Z,98718.84
2023-03-12T20:59:44.019Z,98712.09
2023-03-12T21:02:17.016Z,98722.50
2023-03-12T21:04:52.594Z,98710.94
2023-03-12T21:07:25.809Z,98706.09
2023-03-12T21:09:58.823Z,98702.56
2023-03-12T21:12:33.298Z,98704.41
2023-03-12T21:15:07.405Z,98701.97
2023-03-12T21:17:41.633Z,98713.09
2023-03-12T21:20:17.121Z,98699.97
2023-03-12T21:22:50.138Z,98692.22
2023-03-12T21:25:23.051Z,98695.59
2023-03-12T21:27:57.472Z,98697.88
2023-03-12T21:30:30.405Z,98696.72
2023-03-12T21:33:04.400Z,98698.75
2023-03-12T21:35:37.483Z,98698.75
2023-03-12T21:38:10.441Z,98694.38
2023-03-12T21:40:43.274Z,98695.59
2023-03-12T21:43:17.536Z,98701.44
2023-03-12T21:45:50.334Z,98695.34
2023-03-12T21:48:23.194Z,98687.97
2023-03-12T21:50:56.190Z,98685.75
2023-03-12T21:53:29.112Z,98683.53
2023-03-12T21:56:03.591Z,98674.97
2023-03-12T21:58:37.856Z,98671.75
2023-03-12T22:01:12.475Z,98672.13
2023-03-12T22:03:47.340Z,98671.00
2023-03-12T22:06:20.703Z,98675.69
2023-03-12T22:08:53.673Z,98676.19
2023-03-12T22:11:26.598Z,98671.06
2023-03-12T22:14:00.888Z,98672.28
2023-03-12T22:16:33.901Z,98674.19
2023-03-12T22:19:07.434Z,98669.78
2023-03-12T22:21:41.817Z,98667.63
2023-03-12T22:24:14.716Z,98665.38
2023-03-12T22:26:47.654Z,98656.50
2023-03-12T22:29:22.338Z,98654.41
2023-03-12T22:31:56.194Z,98653.28
2023-03-12T22:34:29.967Z,98648.78
2023-03-12T22:37:03.144Z,98646.50
2023-03-12T22:39:36.621Z,98634.28
2023-03-12T22:42:09.590Z,98643.44
2023-03-12T22:44:44.363Z,98644.22
2023-03-12T22:47:17.216Z,98644.94
2023-03-12T22:49:50.189Z,98641.06
2023-03-12T22:52:23.489Z,98639.81
2023-03-12T22:54:56.475Z,98645.56
2023-03-12T22:57:29.428Z,98637.81
2023-03-12T23:00:07.059Z,98637.19
2023-03-12T23:02:41.301Z,98633.78
2023-03-12T23:05:14.312Z,98628.84
2023-03-12T23:07:47.390Z,98620.16
2023-03-12T23:10:20.461Z,98620.81
2023-03-12T23:12:53.317Z,98612.53
2023-03-12T23:15:38.796Z,98622.03
2023-03-12T23:18:13.837Z,98613.81
2023-03-12T23:20:47.316Z,98606.97
2023-03-12T23:23:20.370Z,98608.69
2023-03-12T23:25:54.221Z,98613.78
2023-03-12T23:28:28.142Z,98602.28
2023-03-12T23:31:05.143Z,98598.56
2023-03-12T23:33:38.342Z,98590.50
2023-03-12T23:36:13.858Z,98578.16
2023-03-12T23:38:48.040Z,98585.56
2023-03-12T23:41:23.431Z,98586.81
2023-03-12T23:43:57.676Z,98583.56
2023-03-12T23:46:32.232Z,98577.56
2023-03-12T23:49:05.050Z,98574.66
2023-03-12T23:51:40.050Z,98579.09
2023-03-12T23:54:12.876Z,98572.03
2023-03-12T23:56:45.720Z,98572.28
2023-03-12T23:59:18.621Z,98581.91
